Time;durP1;ratioP1;P1;durP2;ratioP2;P2;SDS_P1;SDS_P2;PMS_P1;PMS_P2;Temp;Humidity;BMP_temperature;BMP_pressure;BME280_temperature;BME280_humidity;BME280_pressure;Samples;Min_cycle;Max_cycle;Signal;HPM_P1;HPM_P2
2022/05/28 00:01:22;;;;;;;7.93;2.38;;;11.20;99.90;;;;;;5095022;28;20169;-47
2022/05/28 00:03:48;;;;;;;6.78;2.40;;;11.30;99.90;;;;;;5094996;28;20287;-50
2022/05/28 00:06:18;;;;;;;8.23;2.65;;;11.20;99.90;;;;;;5095014;28;20197;-49
2022/05/28 00:08:44;;;;;;;6.60;2.33;;;11.30;99.90;;;;;;5094954;28;20531;-48
2022/05/28 00:11:21;;;;;;;7.57;2.03;;;11.30;99.90;;;;;;5094928;28;20172;-50
2022/05/28 00:13:48;;;;;;;10.10;2.40;;;11.20;99.90;;;;;;5094900;28;20203;-49
2022/05/28 00:16:14;;;;;;;9.25;2.30;;;11.20;99.90;;;;;;5094804;28;20170;-50
2022/05/28 00:18:40;;;;;;;6.88;2.22;;;11.20;99.90;;;;;;5094846;28;20173;-49
2022/05/28 00:21:10;;;;;;;8.38;2.55;;;11.10;99.90;;;;;;5094680;28;20165;-49
2022/05/28 00:23:37;;;;;;;8.60;2.20;;;11.10;99.90;;;;;;5094598;28;20526;-49
2022/05/28 00:26:04;;;;;;;9.50;2.58;;;11.10;99.90;;;;;;5076419;28;20163;-48
2022/05/28 00:28:30;;;;;;;6.70;2.55;;;11.00;99.90;;;;;;5094873;28;20691;-48
2022/05/28 00:30:55;;;;;;;6.68;2.00;;;11.10;99.90;;;;;;5093959;28;20203;-50
2022/05/28 00:33:22;;;;;;;6.72;2.28;;;11.10;99.90;;;;;;5094647;28;20210;-49
2022/05/28 00:35:48;;;;;;;7.32;2.85;;;11.10;99.90;;;;;;5094533;28;20215;-50
2022/05/28 00:38:13;;;;;;;10.18;2.47;;;11.10;99.90;;;;;;5094392;28;20699;-48
2022/05/28 00:40:39;;;;;;;6.82;2.30;;;11.10;99.90;;;;;;5094585;28;20539;-49
2022/05/28 00:43:05;;;;;;;5.57;2.25;;;11.10;99.90;;;;;;5094176;28;20201;-49
2022/05/28 00:45:33;;;;;;;8.30;2.35;;;11.00;99.90;;;;;;5094246;28;20170;-48
2022/05/28 00:48:02;;;;;;;8.40;2.10;;;11.00;99.90;;;;;;5094559;28;20180;-49
2022/05/28 00:50:28;;;;;;;7.45;2.30;;;11.00;99.90;;;;;;5094804;28;20252;-48
2022/05/28 00:52:53;;;;;;;7.53;2.15;;;11.00;99.90;;;;;;5093885;28;20245;-48
2022/05/28 00:55:19;;;;;;;9.82;2.75;;;11.00;99.90;;;;;;5093997;28;20201;-48
2022/05/28 00:57:46;;;;;;;6.47;2.72;;;10.90;99.90;;;;;;5094028;28;20192;-48
2022/05/28 01:00:20;;;;;;;8.10;2.78;;;10.90;99.90;;;;;;5093900;28;20252;-47
2022/05/28 01:03:13;;;;;;;9.32;2.15;;;10.90;99.90;;;;;;5093830;28;20201;-48
2022/05/28 01:05:54;;;;;;;6.30;2.20;;;10.80;99.90;;;;;;5093719;28;20211;-48
2022/05/28 01:08:37;;;;;;;6.30;2.35;;;10.90;99.90;;;;;;5093496;28;20219;-48
2022/05/28 01:11:19;;;;;;;7.25;2.30;;;10.90;99.90;;;;;;5093927;28;20173;-48
2022/05/28 01:13:49;;;;;;;7.70;2.03;;;11.00;99.90;;;;;;5093943;28;20166;-48
2022/05/28 01:16:19;;;;;;;10.35;3.08;;;11.00;99.90;;;;;;5093695;28;20256;-48
2022/05/28 01:19:16;;;;;;;8.27;2.75;;;11.00;99.90;;;;;;5093586;28;20196;-48
2022/05/28 01:22:02;;;;;;;6.93;2.38;;;11.00;99.90;;;;;;5092598;28;20185;-47
2022/05/28 01:24:53;;;;;;;7.05;2.30;;;11.00;99.90;;;;;;5093895;28;20172;-48
2022/05/28 01:27:28;;;;;;;7.45;2.28;;;11.00;99.90;;;;;;5093466;28;20200;-48
2022/05/28 01:29:56;;;;;;;6.30;2.95;;;11.10;99.90;;;;;;5093327;28;20166;-50
2022/05/28 01:32:25;;;;;;;7.57;2.42;;;11.10;99.90;;;;;;5093289;28;20625;-48
2022/05/28 01:34:52;;;;;;;6.97;1.80;;;11.20;99.90;;;;;;5093284;28;20169;-48
2022/05/28 01:37:19;;;;;;;8.35;2.30;;;11.20;99.90;;;;;;5093283;28;20544;-48
2022/05/28 01:39:47;;;;;;;8.27;2.85;;;11.10;99.90;;;;;;5093500;28;20207;-47
2022/05/28 01:42:14;;;;;;;8.02;2.05;;;11.20;99.90;;;;;;5092324;28;20276;-49
2022/05/28 01:44:43;;;;;;;8.43;2.67;;;11.20;99.90;;;;;;5093052;28;20165;-49
2022/05/28 01:47:11;;;;;;;7.43;2.70;;;11.10;99.90;;;;;;5093048;28;20173;-48
2022/05/28 01:49:38;;;;;;;8.13;2.60;;;11.10;99.90;;;;;;5092871;28;20658;-48
2022/05/28 01:52:05;;;;;;;10.60;2.35;;;11.00;99.90;;;;;;5092932;28;20570;-48
2022/05/28 01:54:35;;;;;;;6.22;2.15;;;11.00;99.90;;;;;;5092997;28;20162;-47
2022/05/28 01:57:01;;;;;;;10.43;2.53;;;11.10;99.90;;;;;;5074695;28;20203;-48
2022/05/28 01:59:33;;;;;;;8.27;2.60;;;11.10;99.90;;;;;;5093125;28;20168;-49
2022/05/28 02:02:00;;;;;;;10.00;2.40;;;11.00;99.90;;;;;;5074800;28;20193;-48
2022/05/28 02:04:26;;;;;;;6.75;2.25;;;11.00;99.90;;;;;;5093275;28;20205;-50
2022/05/28 02:06:52;;;;;;;9.13;3.15;;;11.00;99.90;;;;;;5092841;28;20172;-49
2022/05/28 02:09:22;;;;;;;5.20;2.38;;;11.00;99.90;;;;;;5092744;28;20178;-50
2022/05/28 02:12:26;;;;;;;13.48;2.92;;;11.10;99.90;;;;;;5092645;28;20189;-49
2022/05/28 02:15:07;;;;;;;12.70;2.72;;;11.00;99.90;;;;;;5092800;28;20173;-49
2022/05/28 02:17:46;;;;;;;8.45;2.60;;;11.00;99.90;;;;;;5092412;28;20169;-49
2022/05/28 02:20:35;;;;;;;9.00;2.53;;;11.10;99.90;;;;;;5092494;28;20169;-48
2022/05/28 02:23:17;;;;;;;12.10;2.92;;;11.10;99.90;;;;;;5092454;28;20565;-47
2022/05/28 02:25:50;;;;;;;8.50;2.20;;;11.10;99.90;;;;;;5092408;28;20214;-50
2022/05/28 02:28:16;;;;;;;5.13;2.08;;;11.10;99.90;;;;;;5092364;28;20671;-51
2022/05/28 02:30:53;;;;;;;10.75;3.17;;;11.20;99.90;;;;;;5092405;28;20531;-50
2022/05/28 02:33:20;;;;;;;11.02;2.92;;;11.20;99.90;;;;;;5092528;28;20200;-49
2022/05/28 02:35:46;;;;;;;8.02;2.72;;;11.30;99.90;;;;;;5092258;28;20292;-48
2022/05/28 02:38:13;;;;;;;6.85;2.88;;;11.30;99.90;;;;;;5092290;28;20543;-48
2022/05/28 02:40:39;;;;;;;11.32;2.88;;;11.30;99.90;;;;;;5092253;28;20177;-49
2022/05/28 02:43:05;;;;;;;8.80;2.70;;;11.30;99.90;;;;;;5092047;28;20216;-48
2022/05/28 02:45:30;;;;;;;9.20;2.80;;;11.30;99.90;;;;;;5092331;28;20175;-47
2022/05/28 02:47:56;;;;;;;10.90;3.10;;;11.30;99.90;;;;;;5092423;28;20181;-48
2022/05/28 02:50:26;;;;;;;13.05;2.72;;;11.30;99.90;;;;;;5092348;28;20183;-48
2022/05/28 02:52:52;;;;;;;11.40;3.00;;;11.30;99.90;;;;;;5091944;28;20628;-47
2022/05/28 02:55:17;;;;;;;7.93;2.78;;;11.30;99.90;;;;;;5091797;28;20165;-49
2022/05/28 02:57:44;;;;;;;13.38;3.25;;;11.30;99.90;;;;;;5092049;28;20298;-48
2022/05/28 03:00:10;;;;;;;9.18;3.13;;;11.20;99.90;;;;;;5092277;28;20166;-49
2022/05/28 03:02:36;;;;;;;9.05;3.05;;;11.20;99.90;;;;;;5091782;28;20193;-49
2022/05/28 03:05:02;;;;;;;9.57;3.00;;;11.10;99.90;;;;;;5091925;28;20176;-48
2022/05/28 03:07:27;;;;;;;13.38;3.13;;;11.10;99.90;;;;;;5092311;28;20249;-48
2022/05/28 03:09:53;;;;;;;12.38;3.08;;;11.00;99.90;;;;;;5091895;28;20169;-49
2022/05/28 03:12:18;;;;;;;9.05;2.88;;;10.90;99.90;;;;;;5091876;28;20162;-48
2022/05/28 03:14:44;;;;;;;12.10;3.05;;;10.90;99.90;;;;;;5091835;28;20161;-48
2022/05/28 03:17:10;;;;;;;11.98;2.70;;;10.90;99.90;;;;;;5091752;28;20239;-47
2022/05/28 03:19:35;;;;;;;9.95;2.75;;;10.90;99.90;;;;;;5091806;28;20196;-49
2022/05/28 03:22:01;;;;;;;8.40;2.85;;;10.90;99.90;;;;;;5091692;28;20231;-47
2022/05/28 03:24:26;;;;;;;7.15;2.90;;;10.90;99.90;;;;;;5092137;28;20169;-49
2022/05/28 03:26:54;;;;;;;9.18;2.88;;;10.80;99.90;;;;;;5091714;28;20519;-47
2022/05/28 03:29:19;;;;;;;6.30;2.80;;;10.80;99.90;;;;;;5091931;28;20218;-48
2022/05/28 03:31:45;;;;;;;5.90;2.67;;;10.80;99.90;;;;;;5091733;28;20517;-48
2022/05/28 03:34:10;;;;;;;11.25;3.03;;;10.80;99.90;;;;;;5091874;28;20177;-48
2022/05/28 03:36:36;;;;;;;8.10;2.97;;;10.80;99.90;;;;;;5091626;28;20172;-48
2022/05/28 03:39:02;;;;;;;11.18;2.55;;;10.70;99.90;;;;;;5092142;28;20185;-47
2022/05/28 03:41:28;;;;;;;8.85;2.90;;;10.80;99.90;;;;;;5092124;28;20256;-48
2022/05/28 03:43:54;;;;;;;9.98;2.63;;;10.80;99.90;;;;;;5091802;28;20578;-48
2022/05/28 03:46:27;;;;;;;6.95;3.10;;;10.80;99.90;;;;;;5091567;28;20226;-48
2022/05/28 03:49:04;;;;;;;9.15;3.00;;;10.70;99.90;;;;;;5091737;28;20214;-49
2022/05/28 03:51:30;;;;;;;9.02;3.38;;;10.70;99.90;;;;;;5091660;28;20209;-48
2022/05/28 03:53:56;;;;;;;9.35;2.75;;;10.70;99.90;;;;;;5091880;28;20174;-50
2022/05/28 03:56:22;;;;;;;9.48;2.90;;;10.70;99.90;;;;;;5091722;28;20714;-50
2022/05/28 03:58:50;;;;;;;8.50;3.00;;;10.70;99.90;;;;;;5091407;28;20626;-48
2022/05/28 04:01:16;;;;;;;11.38;3.58;;;10.70;99.90;;;;;;5091750;28;20250;-50
2022/05/28 04:03:42;;;;;;;11.35;2.70;;;10.70;99.90;;;;;;5091342;28;20205;-48
2022/05/28 04:06:09;;;;;;;13.13;3.40;;;10.80;99.90;;;;;;5092494;28;20161;-48
2022/05/28 04:08:35;;;;;;;13.05;3.10;;;10.90;99.90;;;;;;5095006;28;20573;-48
2022/05/28 04:11:00;;;;;;;13.13;3.60;;;10.80;99.90;;;;;;5095167;28;20201;-48
2022/05/28 04:13:26;;;;;;;9.98;3.35;;;10.80;99.90;;;;;;5095420;28;20252;-49
2022/05/28 04:15:52;;;;;;;11.50;3.25;;;10.80;99.90;;;;;;5094827;28;20166;-48
2022/05/28 04:18:17;;;;;;;7.68;3.08;;;10.90;99.90;;;;;;5094787;28;20170;-48
2022/05/28 04:20:43;;;;;;;9.73;3.10;;;10.90;99.90;;;;;;5094760;28;20179;-48
2022/05/28 04:23:09;;;;;;;13.00;3.30;;;10.90;99.90;;;;;;5094590;28;20281;-48
2022/05/28 04:25:34;;;;;;;9.60;3.17;;;10.90;99.90;;;;;;5076462;28;20173;-48
2022/05/28 04:28:00;;;;;;;15.10;3.25;;;10.90;99.90;;;;;;5095014;28;20172;-48
2022/05/28 04:30:25;;;;;;;12.85;3.13;;;12.10;99.90;;;;;;5094892;28;20562;-47
2022/05/28 04:32:51;;;;;;;10.55;2.65;;;11.00;99.90;;;;;;5094521;28;20169;-48
2022/05/28 04:35:16;;;;;;;13.45;3.10;;;11.00;99.90;;;;;;5094553;28;20162;-48
2022/05/28 04:37:42;;;;;;;7.05;3.13;;;11.00;99.90;;;;;;5094392;28;20621;-49
2022/05/28 04:40:11;;;;;;;15.10;3.75;;;11.20;99.90;;;;;;5094382;28;20169;-48
2022/05/28 04:42:36;;;;;;;12.95;3.25;;;11.30;99.90;;;;;;5094214;28;20295;-48
2022/05/28 04:45:03;;;;;;;12.93;2.92;;;11.40;99.90;;;;;;5094379;28;20248;-48
2022/05/28 04:47:29;;;;;;;9.70;3.25;;;11.60;99.90;;;;;;5094647;28;20161;-48
2022/05/28 04:49:54;;;;;;;10.75;3.30;;;11.60;99.90;;;;;;5094218;28;20180;-48
2022/05/28 04:52:21;;;;;;;10.00;2.97;;;11.80;99.90;;;;;;5094009;28;20217;-48
2022/05/28 04:54:46;;;;;;;11.35;3.15;;;12.00;99.90;;;;;;5094434;28;20536;-47
2022/05/28 04:57:12;;;;;;;17.20;3.40;;;12.10;99.90;;;;;;5094086;28;20166;-48
2022/05/28 04:59:37;;;;;;;13.07;3.50;;;12.20;99.90;;;;;;5094062;28;20169;-47
2022/05/28 05:02:06;;;;;;;14.70;3.10;;;12.30;99.90;;;;;;5093806;28;20197;-48
2022/05/28 05:04:31;;;;;;;13.52;3.60;;;12.40;99.90;;;;;;5093803;28;20173;-48
2022/05/28 05:06:57;;;;;;;9.98;2.97;;;12.40;99.90;;;;;;5094108;28;20175;-50
2022/05/28 05:09:22;;;;;;;9.95;3.25;;;12.50;99.90;;;;;;5093796;28;20223;-50
2022/05/28 05:11:48;;;;;;;10.80;3.33;;;12.50;99.90;;;;;;5093669;28;20170;-50
2022/05/28 05:14:13;;;;;;;8.70;3.25;;;12.70;99.90;;;;;;5093705;28;20165;-49
2022/05/28 05:16:39;;;;;;;10.25;3.10;;;12.80;99.90;;;;;;5093558;28;20306;-50
2022/05/28 05:19:04;;;;;;;12.30;3.78;;;12.80;99.90;;;;;;5093580;28;20819;-49
2022/05/28 05:21:30;;;;;;;5.85;2.53;;;12.90;99.90;;;;;;5094063;28;20165;-49
2022/05/28 05:23:56;;;;;;;8.43;2.78;;;12.90;99.90;;;;;;5093807;28;20216;-50
2022/05/28 05:26:22;;;;;;;10.25;3.00;;;13.00;99.90;;;;;;5093472;28;20164;-47
2022/05/28 05:28:48;;;;;;;11.55;3.35;;;13.00;99.90;;;;;;5093290;28;20201;-48
2022/05/28 05:31:14;;;;;;;9.82;3.17;;;13.10;99.90;;;;;;5093347;28;20161;-49
2022/05/28 05:33:40;;;;;;;16.17;3.47;;;13.10;99.90;;;;;;5093240;28;20222;-50
2022/05/28 05:36:06;;;;;;;9.02;3.03;;;13.10;99.90;;;;;;5075109;28;20196;-50
2022/05/28 05:38:32;;;;;;;7.65;3.00;;;13.10;99.90;;;;;;5093227;28;20177;-48
2022/05/28 05:40:57;;;;;;;16.42;3.95;;;13.30;99.90;;;;;;5093415;28;20211;-50
2022/05/28 05:43:23;;;;;;;11.80;3.25;;;13.40;99.90;;;;;;5093162;28;20714;-50
2022/05/28 05:45:56;;;;;;;10.57;3.00;;;13.40;99.90;;;;;;5092961;28;20238;-49
2022/05/28 05:48:22;;;;;;;12.05;3.60;;;13.50;99.90;;;;;;5092875;28;20638;-51
2022/05/28 05:50:48;;;;;;;9.23;2.92;;;13.50;99.90;;;;;;5092802;28;20172;-49
2022/05/28 05:53:14;;;;;;;8.63;2.97;;;13.40;99.90;;;;;;5092366;28;20295;-49
2022/05/28 05:55:39;;;;;;;10.80;3.40;;;13.40;99.90;;;;;;5092787;28;20169;-50
2022/05/28 05:58:05;;;;;;;12.38;3.22;;;13.40;99.90;;;;;;5074492;28;20656;-49
2022/05/28 06:00:31;;;;;;;8.43;2.97;;;13.40;99.90;;;;;;5092551;28;20171;-49
2022/05/28 06:02:56;;;;;;;10.27;2.60;;;13.40;99.90;;;;;;5092763;28;20201;-49
2022/05/28 06:05:22;;;;;;;10.40;3.28;;;13.50;99.90;;;;;;5074536;28;20161;-49
2022/05/28 06:07:48;;;;;;;9.93;2.80;;;13.60;99.90;;;;;;5074502;28;20169;-48
2022/05/28 06:10:13;;;;;;;6.28;2.28;;;13.50;99.90;;;;;;5092633;28;20169;-49
2022/05/28 06:12:39;;;;;;;11.52;3.78;;;13.70;99.90;;;;;;5091999;28;20161;-49
2022/05/28 06:15:06;;;;;;;10.32;2.70;;;13.60;99.90;;;;;;5092180;28;20169;-48
2022/05/28 06:17:34;;;;;;;19.35;5.18;;;13.50;99.90;;;;;;5092678;28;20465;-48
2022/05/28 06:20:00;;;;;;;10.15;3.50;;;13.60;99.90;;;;;;5092680;28;20613;-49
2022/05/28 06:22:26;;;;;;;12.07;3.30;;;13.80;99.90;;;;;;5092687;28;20205;-49
2022/05/28 06:24:51;;;;;;;8.52;2.65;;;13.90;99.90;;;;;;5092326;28;20176;-49
2022/05/28 06:27:17;;;;;;;26.70;4.78;;;13.90;99.90;;;;;;5091865;28;20498;-50
2022/05/28 06:29:42;;;;;;;13.55;2.90;;;13.90;99.90;;;;;;5092045;28;20177;-51
2022/05/28 06:32:08;;;;;;;12.60;3.63;;;14.20;99.90;;;;;;5092271;28;20653;-49
2022/05/28 06:34:34;;;;;;;11.95;3.20;;;14.40;99.90;;;;;;5092310;28;20169;-49
2022/05/28 06:37:00;;;;;;;7.28;2.75;;;14.60;99.90;;;;;;5092343;28;20165;-50
2022/05/28 06:39:25;;;;;;;6.53;2.40;;;14.50;99.90;;;;;;5092537;28;20210;-48
2022/05/28 06:41:51;;;;;;;8.52;3.13;;;14.50;99.90;;;;;;5091976;28;20221;-48
2022/05/28 06:44:16;;;;;;;7.43;2.80;;;14.40;99.90;;;;;;5092006;28;20179;-49
2022/05/28 06:46:42;;;;;;;11.45;2.78;;;14.60;99.90;;;;;;5092090;28;20177;-48
2022/05/28 06:49:07;;;;;;;9.48;2.60;;;14.50;99.90;;;;;;5091967;28;20173;-50
2022/05/28 06:51:33;;;;;;;10.40;2.78;;;14.50;99.90;;;;;;5091637;28;20308;-50
2022/05/28 06:53:59;;;;;;;12.32;3.20;;;14.20;99.90;;;;;;5092120;28;20168;-50
2022/05/28 06:56:24;;;;;;;9.18;2.67;;;14.30;99.90;;;;;;5091759;28;20689;-48
2022/05/28 06:58:50;;;;;;;9.65;3.00;;;14.30;99.90;;;;;;5091765;28;20222;-49
2022/05/28 07:01:17;;;;;;;9.35;3.15;;;14.40;99.90;;;;;;5091694;28;20234;-48
2022/05/28 07:03:43;;;;;;;10.80;2.28;;;14.10;99.90;;;;;;5091488;28;20751;-50
2022/05/28 07:06:10;;;;;;;12.02;2.95;;;14.20;99.90;;;;;;5092166;28;20286;-50
2022/05/28 07:08:35;;;;;;;17.58;3.30;;;14.30;99.90;;;;;;5091786;28;20225;-49
2022/05/28 07:11:05;;;;;;;19.20;4.05;;;14.50;99.90;;;;;;5091750;28;20256;-49
2022/05/28 07:13:31;;;;;;;7.88;2.10;;;14.50;99.90;;;;;;5091985;28;20177;-50
2022/05/28 07:15:57;;;;;;;6.55;2.40;;;14.60;99.90;;;;;;5092121;28;20168;-50
2022/05/28 07:18:22;;;;;;;7.32;2.15;;;14.70;99.90;;;;;;5091688;28;20170;-49
2022/05/28 07:20:48;;;;;;;4.72;1.77;;;14.70;99.90;;;;;;5091723;28;20245;-49
2022/05/28 07:23:20;;;;;;;11.23;2.28;;;14.80;99.90;;;;;;5091676;28;20280;-48
2022/05/28 07:25:46;;;;;;;8.93;2.10;;;14.80;99.90;;;;;;5091708;28;20164;-49
2022/05/28 07:28:25;;;;;;;9.95;2.42;;;14.90;99.90;;;;;;5092046;28;20544;-49
2022/05/28 07:30:55;;;;;;;7.38;2.35;;;15.20;99.90;;;;;;5091650;28;20214;-48
2022/05/28 07:33:21;;;;;;;8.43;2.53;;;15.70;99.90;;;;;;5091543;28;20168;-50
2022/05/28 07:35:47;;;;;;;4.15;1.70;;;15.70;99.90;;;;;;5091599;28;20169;-47
2022/05/28 07:38:13;;;;;;;6.47;1.92;;;15.90;99.90;;;;;;5091578;28;20286;-48
2022/05/28 07:40:39;;;;;;;4.65;2.05;;;15.80;99.90;;;;;;5092001;28;20268;-48
2022/05/28 07:43:04;;;;;;;8.82;1.88;;;15.90;99.90;;;;;;5095390;28;20220;-49
2022/05/28 07:45:35;;;;;;;4.78;1.30;;;15.90;99.90;;;;;;5095344;28;20173;-47
2022/05/28 07:48:00;;;;;;;3.83;1.58;;;16.00;99.90;;;;;;5095324;28;20165;-47
2022/05/28 07:50:26;;;;;;;5.55;1.70;;;16.00;99.90;;;;;;5095610;28;20630;-48
2022/05/28 07:52:51;;;;;;;8.57;1.55;;;15.90;99.90;;;;;;5095027;28;20220;-49
2022/05/28 07:55:17;;;;;;;3.30;1.70;;;15.90;99.90;;;;;;5095237;28;20168;-48
2022/05/28 07:57:42;;;;;;;5.38;1.70;;;16.30;99.90;;;;;;5095129;28;20165;-48
2022/05/28 08:00:08;;;;;;;6.22;2.10;;;16.30;99.90;;;;;;5095017;28;20534;-48
2022/05/28 08:02:34;;;;;;;4.75;1.33;;;16.60;99.90;;;;;;5095023;28;20208;-48
2022/05/28 08:05:00;;;;;;;7.25;2.35;;;16.30;99.90;;;;;;5095031;28;20637;-47
2022/05/28 08:07:25;;;;;;;8.85;1.90;;;16.40;99.90;;;;;;5095135;28;20355;-49
2022/05/28 08:09:51;;;;;;;4.32;1.38;;;16.30;99.90;;;;;;5094773;28;20664;-48
2022/05/28 08:12:16;;;;;;;4.15;1.90;;;16.10;99.90;;;;;;5094902;28;20303;-49
2022/05/28 08:14:42;;;;;;;4.88;1.85;;;16.10;99.90;;;;;;5094832;28;20197;-50
2022/05/28 08:17:08;;;;;;;9.75;1.70;;;16.00;99.90;;;;;;5094594;28;20195;-49
2022/05/28 08:19:34;;;;;;;5.53;2.42;;;16.30;99.90;;;;;;5094581;28;20592;-49
2022/05/28 08:24:44;;;;;;;7.35;1.83;;;16.00;99.90;;;;;;5094603;28;20176;-50
2022/05/28 08:27:10;;;;;;;9.25;3.50;;;15.80;99.90;;;;;;5094634;28;20630;-50
2022/05/28 08:29:35;;;;;;;10.57;3.20;;;15.60;99.90;;;;;;5094433;28;20172;-50
2022/05/28 08:32:01;;;;;;;7.90;2.40;;;15.40;99.90;;;;;;5094362;28;20169;-49
2022/05/28 08:34:26;;;;;;;5.45;1.80;;;15.40;99.90;;;;;;5094677;28;20188;-49
2022/05/28 08:36:52;;;;;;;7.90;2.28;;;15.50;99.90;;;;;;5094564;28;20173;-50
2022/05/28 08:39:17;;;;;;;9.05;2.08;;;15.90;99.90;;;;;;5094292;28;20201;-50
2022/05/28 08:41:59;;;;;;;5.95;2.30;;;16.30;99.90;;;;;;5094295;28;20161;-50
2022/05/28 08:44:32;;;;;;;4.78;1.52;;;16.30;99.90;;;;;;5094366;28;20216;-49
2022/05/28 08:47:24;;;;;;;5.40;1.55;;;16.70;99.90;;;;;;5094558;28;20185;-49
2022/05/28 08:49:51;;;;;;;7.95;1.75;;;16.90;99.90;;;;;;5094028;28;20173;-50
2022/05/28 08:52:35;;;;;;;4.40;1.63;;;17.10;99.90;;;;;;5093456;28;20213;-50
2022/05/28 08:55:07;;;;;;;6.03;1.50;;;17.40;99.90;;;;;;5094018;28;20194;-49
2022/05/28 08:57:41;;;;;;;5.93;1.95;;;17.00;99.90;;;;;;5093958;28;20168;-48
2022/05/28 09:00:50;;;;;;;4.20;1.48;;;16.70;99.90;;;;;;5093915;28;20169;-51
2022/05/28 09:03:50;;;;;;;7.40;1.50;;;16.60;99.90;;;;;;5093404;28;20814;-50
2022/05/28 09:06:20;;;;;;;5.45;1.50;;;17.00;99.90;;;;;;5092949;28;20531;-50
2022/05/28 09:08:51;;;;;;;4.18;1.30;;;17.20;99.90;;;;;;5093455;28;20157;-51
2022/05/28 09:11:53;;;;;;;5.35;1.80;;;17.20;99.90;;;;;;5093818;28;20201;-49
2022/05/28 09:14:33;;;;;;;6.30;1.48;;;17.60;99.90;;;;;;5093668;28;20169;-50
2022/05/28 09:17:17;;;;;;;5.32;1.40;;;17.90;99.90;;;;;;5093938;28;20641;-48
2022/05/28 09:19:48;;;;;;;6.57;1.40;;;17.90;99.90;;;;;;5093760;28;20177;-50
2022/05/28 09:22:15;;;;;;;8.80;1.73;;;17.30;99.90;;;;;;5093370;28;20282;-50
2022/05/28 09:24:42;;;;;;;8.73;1.70;;;16.90;99.90;;;;;;5093326;28;20177;-50
2022/05/28 09:27:32;;;;;;;3.63;1.45;;;17.40;99.90;;;;;;5093071;28;20154;-50
2022/05/28 09:30:13;;;;;;;6.50;1.40;;;17.80;99.90;;;;;;5093388;28;20652;-50
2022/05/28 09:33:01;;;;;;;3.40;1.17;;;17.90;99.90;;;;;;5093501;28;20173;-51
2022/05/28 09:35:45;;;;;;;3.95;1.30;;;17.50;99.90;;;;;;5092919;28;20310;-51
2022/05/28 09:38:31;;;;;;;6.30;1.38;;;17.90;99.90;;;;;;5092910;28;20169;-50
2022/05/28 09:41:14;;;;;;;4.03;1.60;;;17.50;99.90;;;;;;5042042;28;20185;-49
2022/05/28 09:43:46;;;;;;;9.70;2.20;;;17.50;99.90;;;;;;5092951;28;20660;-49
2022/05/28 09:46:39;;;;;;;5.38;2.10;;;17.80;99.90;;;;;;5092775;28;20176;-49
2022/05/28 09:49:23;;;;;;;6.15;1.58;;;17.50;99.90;;;;;;5092433;28;20165;-49
2022/05/28 09:52:09;;;;;;;12.25;2.13;;;17.60;99.90;;;;;;5092813;28;20759;-48
2022/05/28 09:54:36;;;;;;;5.03;1.48;;;17.70;99.90;;;;;;5092891;28;20169;-48
2022/05/28 09:57:11;;;;;;;5.47;1.52;;;17.90;99.90;;;;;;5074551;28;20172;-49
2022/05/28 09:59:43;;;;;;;4.18;1.20;;;18.20;99.90;;;;;;5092991;28;20173;-49
2022/05/28 10:02:17;;;;;;;3.60;1.15;;;18.50;99.90;;;;;;5092593;28;20172;-50
2022/05/28 10:05:11;;;;;;;5.80;1.17;;;18.10;99.90;;;;;;5092107;28;20252;-50
2022/05/28 10:07:51;;;;;;;5.20;1.67;;;17.50;99.90;;;;;;5089480;28;20180;-47
2022/05/28 10:10:22;;;;;;;4.30;1.42;;;17.50;99.90;;;;;;5092573;28;20165;-48
2022/05/28 10:12:48;;;;;;;2.78;1.30;;;17.60;99.90;;;;;;5092515;28;20214;-48
2022/05/28 10:15:21;;;;;;;4.05;1.45;;;17.30;99.90;;;;;;5092449;28;20555;-54
2022/05/28 10:17:56;;;;;;;4.50;1.40;;;17.20;99.90;;;;;;5092282;28;20162;-51
2022/05/28 10:20:22;;;;;;;5.38;1.63;;;17.60;99.90;;;;;;5092366;28;20208;-50
2022/05/28 10:22:50;;;;;;;3.85;1.30;;;18.20;99.90;;;;;;5092174;28;20228;-50
2022/05/28 10:25:34;;;;;;;4.30;1.40;;;18.50;99.90;;;;;;5092276;28;20166;-49
2022/05/28 10:28:00;;;;;;;4.28;1.27;;;18.50;99.50;;;;;;5092443;28;20173;-51
2022/05/28 10:30:37;;;;;;;4.38;1.48;;;18.70;98.50;;;;;;5092849;28;20177;-48
2022/05/28 10:33:11;;;;;;;2.58;1.10;;;18.60;99.20;;;;;;5092228;28;20658;-49
2022/05/28 10:35:38;;;;;;;5.53;1.40;;;18.40;98.70;;;;;;5092391;28;20173;-48
2022/05/28 10:38:25;;;;;;;3.60;1.50;;;18.60;98.00;;;;;;5092071;28;20165;-50
2022/05/28 10:40:56;;;;;;;4.35;1.50;;;18.00;95.40;;;;;;5092015;28;20172;-48
2022/05/28 10:43:28;;;;;;;12.55;2.58;;;17.90;95.80;;;;;;5091810;28;20201;-51
2022/05/28 10:46:23;;;;;;;4.82;1.50;;;18.10;96.70;;;;;;5092416;28;20189;-51
2022/05/28 10:49:12;;;;;;;5.97;1.58;;;18.20;98.30;;;;;;5092036;28;20169;-51
2022/05/28 10:52:26;;;;;;;4.82;1.40;;;18.20;97.40;;;;;;5091397;28;20266;-50
2022/05/28 10:55:12;;;;;;;5.40;1.60;;;18.80;95.40;;;;;;5006788;28;20172;-50
2022/05/28 10:57:52;;;;;;;3.80;1.70;;;19.10;93.50;;;;;;4992780;28;20174;-51
2022/05/28 11:00:22;;;;;;;7.43;1.88;;;19.30;93.10;;;;;;5072545;28;20191;-51
2022/05/28 11:03:04;;;;;;;2.80;1.38;;;18.70;92.50;;;;;;5091907;28;20197;-51
2022/05/28 11:05:51;;;;;;;2.67;1.42;;;18.80;92.90;;;;;;5091607;28;20161;-48
2022/05/28 11:08:39;;;;;;;2.33;1.30;;;19.20;94.30;;;;;;5073538;28;20234;-48
2022/05/28 11:11:26;;;;;;;3.65;1.38;;;18.90;93.30;;;;;;5073562;28;20168;-47
2022/05/28 11:14:32;;;;;;;6.18;1.83;;;18.80;93.20;;;;;;5091661;28;20193;-49
2022/05/28 11:17:39;;;;;;;3.88;1.40;;;18.70;91.70;;;;;;5077729;28;20184;-48
2022/05/28 11:20:25;;;;;;;5.55;1.60;;;18.80;92.00;;;;;;5047740;28;20650;-47
2022/05/28 11:23:13;;;;;;;5.60;1.50;;;18.70;93.30;;;;;;5095374;28;20280;-51
2022/05/28 11:26:03;;;;;;;3.65;1.30;;;19.10;94.20;;;;;;5095716;28;20284;-50
2022/05/28 11:28:55;;;;;;;3.97;1.30;;;19.00;93.30;;;;;;5096269;28;20234;-51
2022/05/28 11:31:38;;;;;;;2.78;1.17;;;18.50;92.40;;;;;;5095651;28;20165;-50
2022/05/28 11:34:16;;;;;;;5.03;1.80;;;18.40;92.10;;;;;;5095564;28;20650;-51
2022/05/28 11:36:47;;;;;;;3.45;1.38;;;18.40;93.80;;;;;;5077555;28;20259;-51
2022/05/28 11:39:36;;;;;;;4.95;1.80;;;18.80;93.80;;;;;;5095488;28;20697;-49
2022/05/28 11:42:22;;;;;;;10.05;1.77;;;18.80;93.40;;;;;;5095117;28;20165;-50
2022/05/28 11:44:54;;;;;;;5.43;1.98;;;19.00;93.90;;;;;;5077285;28;20177;-51
2022/05/28 11:47:32;;;;;;;4.30;2.00;;;19.60;95.10;;;;;;5095639;28;20169;-51
2022/05/28 11:53:18;;;;;;;6.15;1.70;;;20.20;94.30;;;;;;5095163;28;20213;-49
2022/05/28 11:55:46;;;;;;;12.60;1.67;;;20.60;92.30;;;;;;5076899;28;20252;-47
2022/05/28 11:58:21;;;;;;;4.63;1.45;;;20.20;92.10;;;;;;5095166;28;20180;-48
2022/05/28 12:00:56;;;;;;;6.35;1.63;;;20.10;91.00;;;;;;5095183;28;20649;-50
2022/05/28 12:03:25;;;;;;;11.70;2.47;;;20.40;92.00;;;;;;5095274;28;20265;-49
2022/05/28 12:06:19;;;;;;;4.35;1.55;;;19.80;90.10;;;;;;5076822;28;20162;-49
2022/05/28 12:08:49;;;;;;;7.85;2.38;;;19.30;89.70;;;;;;5078170;28;20173;-48
2022/05/28 12:11:29;;;;;;;8.77;2.33;;;19.90;90.50;;;;;;5094791;28;20161;-49
2022/05/28 12:13:59;;;;;;;33.35;5.03;;;20.10;88.70;;;;;;5094823;28;20478;-49
2022/05/28 12:16:32;;;;;;;5.60;1.70;;;20.00;86.00;;;;;;5094809;28;20165;-49
2022/05/28 12:19:00;;;;;;;8.18;1.98;;;19.60;87.30;;;;;;5095305;28;20252;-48
2022/05/28 12:21:27;;;;;;;4.63;1.48;;;18.80;85.10;;;;;;5094954;28;20674;-48
2022/05/28 12:24:09;;;;;;;4.28;1.13;;;18.90;88.30;;;;;;5094573;28;20232;-48
2022/05/28 12:26:48;;;;;;;4.45;1.33;;;19.60;90.30;;;;;;5093713;28;20207;-48
2022/05/28 12:29:29;;;;;;;2.65;1.38;;;19.50;90.00;;;;;;5094460;28;20161;-48
2022/05/28 12:31:56;;;;;;;3.08;1.48;;;19.60;90.50;;;;;;5094523;28;20192;-48
2022/05/28 12:34:24;;;;;;;3.42;1.70;;;20.10;90.80;;;;;;5094500;28;20716;-49
2022/05/28 12:36:53;;;;;;;4.38;1.70;;;20.00;89.50;;;;;;5076727;28;20178;-49
2022/05/28 12:39:40;;;;;;;6.75;1.70;;;20.20;90.50;;;;;;5094613;28;20181;-48
2022/05/28 12:42:20;;;;;;;5.78;1.73;;;20.10;88.90;;;;;;5094215;28;20211;-49
2022/05/28 12:44:51;;;;;;;8.38;1.90;;;19.60;88.00;;;;;;5077054;28;20207;-50
2022/05/28 12:47:27;;;;;;;5.72;1.83;;;19.40;89.60;;;;;;5094280;28;20253;-50
2022/05/28 12:50:10;;;;;;;2.88;1.40;;;19.40;88.70;;;;;;5094480;28;20169;-48
2022/05/28 12:52:59;;;;;;;9.10;1.95;;;19.30;89.10;;;;;;5094098;28;20249;-47
2022/05/28 12:55:33;;;;;;;3.08;1.45;;;19.50;86.80;;;;;;5075919;28;20188;-46
2022/05/28 12:58:11;;;;;;;5.72;1.95;;;19.90;87.60;;;;;;5077132;28;20576;-47
2022/05/28 13:00:54;;;;;;;6.45;1.70;;;20.00;84.70;;;;;;5093894;28;20173;-47
2022/05/28 13:03:24;;;;;;;16.60;1.60;;;20.50;82.90;;;;;;5093642;28;20248;-46
2022/05/28 13:05:53;;;;;;;8.18;1.80;;;19.90;85.90;;;;;;5093891;28;20162;-48
2022/05/28 13:08:27;;;;;;;3.72;1.45;;;20.20;87.80;;;;;;5093621;28;20157;-47
2022/05/28 13:10:56;;;;;;;5.53;1.55;;;20.10;82.80;;;;;;5093813;28;20244;-48